DAL818 KPHX-KIAH
Flight info
| Callsign | DAL818 |
|---|---|
| Flight time | 2h 0m |
| Altitude | 35000 |
| Route | ECLPS1 PHASE ELP Q4 FUSCO DIESL TTORO3 |
| Aircraft | A321/M-SDE3FGHIRWY/LB1 |
Departure
| Time | 2026-05-04 14:05 |
|---|---|
| Airport | Phoenix Sky Harbor International Airport (KPHX) |
Arrival
| Time | 2026-05-04 16:05 |
|---|---|
| Airport | George Bush Intercontinental Airport (KIAH) |
| Time | Latitude | Longitude | Altitude | Speed | Heading |
|---|---|---|---|---|---|
| 2026-05-04 13:36 | 33.43382 | -112.01082 | 1125 ft | 0 kts | 347° |
| 2026-05-04 13:54 | 33.43378 | -112.01081 | 1124 ft | 3 kts | 347° |
| 2026-05-04 13:54 | 33.43325 | -112.01072 | 1119 ft | 4 kts | 1° |
| 2026-05-04 13:55 | 33.43307 | -112.01073 | 1115 ft | 4 kts | 17° |
| 2026-05-04 13:55 | 33.43287 | -112.01091 | 1115 ft | 0 kts | 90° |
| 2026-05-04 14:00 | 33.43287 | -112.01088 | 1125 ft | 2 kts | 90° |
| 2026-05-04 14:01 | 33.43288 | -112.01049 | 1125 ft | 7 kts | 90° |
| 2026-05-04 14:01 | 33.43247 | -112.00999 | 1123 ft | 12 kts | 159° |
| 2026-05-04 14:01 | 33.43215 | -112.00746 | 1119 ft | 21 kts | 89° |
| 2026-05-04 14:02 | 33.43216 | -112.00549 | 1125 ft | 26 kts | 90° |
| 2026-05-04 14:02 | 33.43216 | -112.00316 | 1119 ft | 25 kts | 90° |
| 2026-05-04 14:02 | 33.43215 | -112.00115 | 1120 ft | 24 kts | 90° |
| 2026-05-04 14:02 | 33.43215 | -111.99920 | 1124 ft | 23 kts | 90° |
| 2026-05-04 14:03 | 33.43215 | -111.99735 | 1120 ft | 22 kts | 90° |
| 2026-05-04 14:03 | 33.43214 | -111.99563 | 1120 ft | 20 kts | 90° |
| 2026-05-04 14:03 | 33.43214 | -111.99398 | 1123 ft | 18 kts | 90° |
| 2026-05-04 14:03 | 33.43148 | -111.99336 | 1133 ft | 10 kts | 189° |
| 2026-05-04 14:04 | 33.43103 | -111.99558 | 1132 ft | 43 kts | 269° |
| 2026-05-04 14:04 | 33.43104 | -112.00208 | 1132 ft | 109 kts | 270° |
| 2026-05-04 14:04 | 33.43102 | -112.01335 | 1128 ft | 159 kts | 270° |
| 2026-05-04 14:05 | 33.43091 | -112.04360 | 1885 ft | 185 kts | 265° |
| 2026-05-04 14:05 | 33.43020 | -112.05884 | 2436 ft | 183 kts | 261° |
| 2026-05-04 14:05 | 33.42905 | -112.07451 | 2608 ft | 197 kts | 256° |
| 2026-05-04 14:06 | 33.42412 | -112.09025 | 2690 ft | 211 kts | 241° |
| 2026-05-04 14:06 | 33.41771 | -112.10734 | 2741 ft | 240 kts | 244° |
| 2026-05-04 14:06 | 33.41119 | -112.12668 | 3162 ft | 256 kts | 246° |
| 2026-05-04 14:06 | 33.40496 | -112.14679 | 3911 ft | 259 kts | 249° |
| 2026-05-04 14:07 | 33.39883 | -112.16723 | 4668 ft | 262 kts | 248° |
| 2026-05-04 14:07 | 33.38957 | -112.18567 | 5404 ft | 260 kts | 220° |
| 2026-05-04 14:07 | 33.37340 | -112.19481 | 6072 ft | 263 kts | 187° |
| 2026-05-04 14:07 | 33.35527 | -112.19196 | 6783 ft | 267 kts | 163° |
| 2026-05-04 14:08 | 33.33805 | -112.18324 | 7492 ft | 270 kts | 157° |
| 2026-05-04 14:08 | 33.32127 | -112.17344 | 8162 ft | 274 kts | 158° |
| 2026-05-04 14:08 | 33.30391 | -112.16383 | 8849 ft | 277 kts | 157° |
| 2026-05-04 14:08 | 33.28764 | -112.15094 | 9526 ft | 286 kts | 144° |
| 2026-05-04 14:09 | 33.25878 | -112.11588 | 10350 ft | 312 kts | 139° |
| 2026-05-04 14:09 | 33.24450 | -112.09491 | 10471 ft | 339 kts | 128° |
| 2026-05-04 14:10 | 33.22612 | -112.04048 | 11348 ft | 365 kts | 111° |
| 2026-05-04 14:10 | 33.21853 | -112.01122 | 11857 ft | 371 kts | 111° |
| 2026-05-04 14:10 | 33.21081 | -111.98159 | 12389 ft | 377 kts | 111° |
| 2026-05-04 14:10 | 33.20291 | -111.95146 | 12922 ft | 383 kts | 111° |
| 2026-05-04 14:11 | 33.19489 | -111.92092 | 13458 ft | 388 kts | 111° |
| 2026-05-04 14:11 | 33.17848 | -111.85852 | 14467 ft | 397 kts | 111° |
| 2026-05-04 14:11 | 33.17016 | -111.82701 | 15008 ft | 400 kts | 111° |
| 2026-05-04 14:12 | 33.16173 | -111.79513 | 15556 ft | 404 kts | 112° |
| 2026-05-04 14:12 | 33.15337 | -111.76351 | 16077 ft | 407 kts | 112° |
| 2026-05-04 14:12 | 33.13623 | -111.69856 | 17133 ft | 414 kts | 112° |
| 2026-05-04 14:13 | 33.12756 | -111.66567 | 17668 ft | 417 kts | 112° |
| 2026-05-04 14:13 | 33.11881 | -111.63253 | 18193 ft | 420 kts | 112° |
| 2026-05-04 14:13 | 33.10995 | -111.59912 | 18612 ft | 424 kts | 112° |
| 2026-05-04 14:13 | 33.10097 | -111.56538 | 19008 ft | 429 kts | 112° |
| 2026-05-04 14:14 | 33.09190 | -111.53128 | 19362 ft | 433 kts | 113° |
| 2026-05-04 14:14 | 33.07313 | -111.46244 | 20076 ft | 439 kts | 118° |
| 2026-05-04 14:14 | 33.05947 | -111.43014 | 20411 ft | 434 kts | 129° |
| 2026-05-04 14:15 | 33.02623 | -111.36939 | 21169 ft | 441 kts | 131° |
| 2026-05-04 14:15 | 32.99232 | -111.30781 | 21931 ft | 448 kts | 131° |
| 2026-05-04 14:16 | 32.95783 | -111.24521 | 22677 ft | 456 kts | 132° |
| 2026-05-04 14:16 | 32.94039 | -111.21351 | 23043 ft | 459 kts | 132° |
| 2026-05-04 14:17 | 32.90513 | -111.14940 | 23702 ft | 466 kts | 132° |
| 2026-05-04 14:17 | 32.88731 | -111.11700 | 23944 ft | 470 kts | 132° |
| 2026-05-04 14:17 | 32.85147 | -111.05202 | 24560 ft | 475 kts | 132° |
| 2026-05-04 14:18 | 32.83328 | -111.01911 | 24861 ft | 478 kts | 132° |
| 2026-05-04 14:18 | 32.79657 | -110.95272 | 25478 ft | 483 kts | 132° |
| 2026-05-04 14:19 | 32.75937 | -110.88572 | 26044 ft | 488 kts | 132° |
| 2026-05-04 14:19 | 32.74065 | -110.85203 | 26330 ft | 490 kts | 132° |
| 2026-05-04 14:19 | 32.72179 | -110.81812 | 26618 ft | 493 kts | 132° |
| 2026-05-04 14:19 | 32.70285 | -110.78411 | 26862 ft | 496 kts | 131° |
| 2026-05-04 14:20 | 32.68376 | -110.74983 | 27093 ft | 499 kts | 131° |
| 2026-05-04 14:20 | 32.66461 | -110.71539 | 27354 ft | 501 kts | 130° |
| 2026-05-04 14:20 | 32.64754 | -110.67888 | 27623 ft | 513 kts | 120° |
| 2026-05-04 14:21 | 32.62624 | -110.59643 | 28121 ft | 527 kts | 109° |
| 2026-05-04 14:21 | 32.61705 | -110.55421 | 28361 ft | 530 kts | 109° |
| 2026-05-04 14:21 | 32.60774 | -110.51188 | 28616 ft | 532 kts | 109° |
| 2026-05-04 14:21 | 32.59843 | -110.46986 | 28870 ft | 534 kts | 109° |
| 2026-05-04 14:22 | 32.58896 | -110.42717 | 29094 ft | 537 kts | 109° |
| 2026-05-04 14:22 | 32.57942 | -110.38422 | 29326 ft | 540 kts | 109° |
| 2026-05-04 14:22 | 32.56982 | -110.34115 | 29555 ft | 542 kts | 110° |
| 2026-05-04 14:22 | 32.56015 | -110.29790 | 29765 ft | 544 kts | 110° |
| 2026-05-04 14:23 | 32.54066 | -110.21088 | 30176 ft | 548 kts | 110° |
| 2026-05-04 14:23 | 32.53087 | -110.16722 | 30436 ft | 548 kts | 109° |
| 2026-05-04 14:23 | 32.52109 | -110.12356 | 30740 ft | 547 kts | 109° |
| 2026-05-04 14:24 | 32.51131 | -110.07993 | 31021 ft | 547 kts | 109° |
| 2026-05-04 14:24 | 32.50153 | -110.03637 | 31278 ft | 547 kts | 109° |
| 2026-05-04 14:24 | 32.49169 | -109.99275 | 31558 ft | 548 kts | 109° |
| 2026-05-04 14:24 | 32.48197 | -109.94980 | 31828 ft | 548 kts | 109° |
| 2026-05-04 14:25 | 32.47207 | -109.90615 | 32104 ft | 548 kts | 109° |
| 2026-05-04 14:25 | 32.45225 | -109.81896 | 32674 ft | 548 kts | 109° |
| 2026-05-04 14:25 | 32.44234 | -109.77544 | 32929 ft | 549 kts | 109° |
| 2026-05-04 14:26 | 32.43461 | -109.73090 | 33180 ft | 553 kts | 101° |
| 2026-05-04 14:26 | 32.42904 | -109.68583 | 33411 ft | 554 kts | 101° |
| 2026-05-04 14:26 | 32.42342 | -109.64069 | 33667 ft | 554 kts | 101° |
| 2026-05-04 14:26 | 32.41777 | -109.59559 | 33935 ft | 554 kts | 101° |
| 2026-05-04 14:27 | 32.41205 | -109.55054 | 34173 ft | 553 kts | 101° |
| 2026-05-04 14:27 | 32.40625 | -109.50543 | 34415 ft | 553 kts | 101° |
| 2026-05-04 14:27 | 32.40052 | -109.46105 | 34642 ft | 552 kts | 101° |
| 2026-05-04 14:27 | 32.39475 | -109.41611 | 34833 ft | 552 kts | 101° |
| 2026-05-04 14:28 | 32.38331 | -109.32695 | 34881 ft | 545 kts | 101° |
| 2026-05-04 14:28 | 32.37178 | -109.23835 | 34887 ft | 544 kts | 101° |
| 2026-05-04 14:29 | 32.34604 | -109.06238 | 34895 ft | 541 kts | 105° |
| 2026-05-04 14:30 | 32.32944 | -108.97551 | 34900 ft | 541 kts | 105° |
| 2026-05-04 14:31 | 32.30507 | -108.84513 | 34908 ft | 542 kts | 104° |
| 2026-05-04 14:32 | 32.27427 | -108.67124 | 35105 ft | 542 kts | 104° |
| 2026-05-04 14:32 | 32.25840 | -108.58424 | 35085 ft | 541 kts | 105° |
| 2026-05-04 14:33 | 32.24237 | -108.49731 | 35048 ft | 540 kts | 105° |
| 2026-05-04 14:33 | 32.22646 | -108.41060 | 35006 ft | 540 kts | 104° |
| 2026-05-04 14:34 | 32.21052 | -108.32400 | 34934 ft | 540 kts | 104° |
| 2026-05-04 14:34 | 32.19453 | -108.23730 | 34915 ft | 540 kts | 104° |
| 2026-05-04 14:35 | 32.17851 | -108.15068 | 34918 ft | 540 kts | 104° |
| 2026-05-04 14:35 | 32.16236 | -108.06412 | 34924 ft | 540 kts | 105° |
| 2026-05-04 14:36 | 32.14612 | -107.97759 | 34925 ft | 540 kts | 105° |
| 2026-05-04 14:36 | 32.12989 | -107.89100 | 34915 ft | 540 kts | 105° |
| 2026-05-04 14:37 | 32.11362 | -107.80451 | 35058 ft | 540 kts | 105° |
| 2026-05-04 14:37 | 32.09723 | -107.71804 | 35061 ft | 540 kts | 104° |
| 2026-05-04 14:38 | 32.08094 | -107.63214 | 35034 ft | 541 kts | 104° |
| 2026-05-04 14:38 | 32.06445 | -107.54553 | 34996 ft | 541 kts | 104° |
| 2026-05-04 14:39 | 32.04788 | -107.45907 | 34945 ft | 541 kts | 105° |
| 2026-05-04 14:39 | 32.03122 | -107.37258 | 34912 ft | 541 kts | 105° |
| 2026-05-04 14:40 | 32.00608 | -107.24278 | 34887 ft | 542 kts | 105° |
| 2026-05-04 14:40 | 31.98930 | -107.15621 | 34893 ft | 542 kts | 105° |
| 2026-05-04 14:41 | 31.97250 | -107.06963 | 34880 ft | 542 kts | 105° |
| 2026-05-04 14:42 | 31.93865 | -106.89699 | 34897 ft | 543 kts | 105° |
| 2026-05-04 14:42 | 31.93010 | -106.85375 | 35080 ft | 543 kts | 105° |
| 2026-05-04 14:42 | 31.92156 | -106.81050 | 35098 ft | 543 kts | 105° |
| 2026-05-04 14:43 | 31.90446 | -106.72386 | 35112 ft | 543 kts | 105° |
| 2026-05-04 14:43 | 31.88727 | -106.63728 | 35116 ft | 543 kts | 105° |
| 2026-05-04 14:44 | 31.86997 | -106.55058 | 35077 ft | 544 kts | 105° |
| 2026-05-04 14:44 | 31.85272 | -106.46449 | 35067 ft | 544 kts | 105° |
| 2026-05-04 14:45 | 31.83528 | -106.37787 | 35064 ft | 544 kts | 105° |
| 2026-05-04 14:45 | 31.81782 | -106.29119 | 35047 ft | 544 kts | 103° |
| 2026-05-04 14:46 | 31.80829 | -106.21814 | 35048 ft | 544 kts | 98° |
| 2026-05-04 14:46 | 31.79801 | -106.12998 | 34999 ft | 543 kts | 98° |
| 2026-05-04 14:47 | 31.78771 | -106.04210 | 34936 ft | 543 kts | 98° |
| 2026-05-04 14:47 | 31.77727 | -105.95428 | 34872 ft | 542 kts | 98° |
| 2026-05-04 14:48 | 31.76666 | -105.86662 | 34878 ft | 542 kts | 98° |
| 2026-05-04 14:48 | 31.75607 | -105.77908 | 34878 ft | 541 kts | 98° |
| 2026-05-04 14:49 | 31.74545 | -105.69154 | 34878 ft | 541 kts | 98° |
| 2026-05-04 14:49 | 31.73478 | -105.60455 | 34885 ft | 541 kts | 98° |
| 2026-05-04 14:50 | 31.72401 | -105.51704 | 34881 ft | 542 kts | 98° |
| 2026-05-04 14:50 | 31.71315 | -105.42942 | 34879 ft | 542 kts | 98° |
| 2026-05-04 14:51 | 31.70228 | -105.34173 | 34881 ft | 542 kts | 98° |
| 2026-05-04 14:51 | 31.69137 | -105.25411 | 34864 ft | 542 kts | 98° |
| 2026-05-04 14:52 | 31.68038 | -105.16661 | 34897 ft | 541 kts | 98° |
| 2026-05-04 14:52 | 31.66935 | -105.07919 | 34903 ft | 540 kts | 98° |
| 2026-05-04 14:53 | 31.65830 | -104.99260 | 34903 ft | 540 kts | 98° |
| 2026-05-04 14:53 | 31.64720 | -104.90554 | 34916 ft | 539 kts | 98° |
| 2026-05-04 14:54 | 31.63599 | -104.81839 | 34911 ft | 540 kts | 98° |
| 2026-05-04 14:54 | 31.62474 | -104.73126 | 34906 ft | 540 kts | 98° |
| 2026-05-04 14:55 | 31.61342 | -104.64413 | 34903 ft | 540 kts | 98° |
| 2026-05-04 14:55 | 31.60206 | -104.55697 | 34902 ft | 541 kts | 98° |
| 2026-05-04 14:56 | 31.59060 | -104.46971 | 34899 ft | 541 kts | 98° |
| 2026-05-04 14:56 | 31.57904 | -104.38256 | 34904 ft | 541 kts | 98° |
| 2026-05-04 14:57 | 31.56739 | -104.29542 | 34897 ft | 541 kts | 98° |
| 2026-05-04 14:57 | 31.55585 | -104.20890 | 34927 ft | 541 kts | 98° |
| 2026-05-04 14:58 | 31.54417 | -104.12146 | 34871 ft | 543 kts | 98° |
| 2026-05-04 14:58 | 31.53242 | -104.03393 | 34877 ft | 544 kts | 98° |
| 2026-05-04 14:59 | 31.52051 | -103.94646 | 34885 ft | 544 kts | 98° |
| 2026-05-04 15:00 | 31.50257 | -103.81513 | 34923 ft | 544 kts | 98° |
| 2026-05-04 15:00 | 31.49050 | -103.72751 | 34931 ft | 545 kts | 98° |
| 2026-05-04 15:01 | 31.47222 | -103.59595 | 35000 ft | 546 kts | 98° |
| 2026-05-04 15:01 | 31.46056 | -103.50861 | 35007 ft | 546 kts | 97° |
| 2026-05-04 15:02 | 31.45011 | -103.42057 | 35011 ft | 546 kts | 96° |
| 2026-05-04 15:02 | 31.43989 | -103.33241 | 34984 ft | 546 kts | 96° |
| 2026-05-04 15:03 | 31.42915 | -103.24427 | 34951 ft | 546 kts | 97° |
| 2026-05-04 15:03 | 31.41802 | -103.15625 | 34918 ft | 546 kts | 97° |
| 2026-05-04 15:04 | 31.40693 | -103.06833 | 34892 ft | 546 kts | 97° |
| 2026-05-04 15:04 | 31.39593 | -102.98045 | 34885 ft | 545 kts | 97° |
| 2026-05-04 15:05 | 31.38490 | -102.89270 | 34898 ft | 544 kts | 97° |
| 2026-05-04 15:05 | 31.37387 | -102.80559 | 34901 ft | 544 kts | 97° |
| 2026-05-04 15:06 | 31.36263 | -102.71805 | 34907 ft | 544 kts | 97° |
| 2026-05-04 15:07 | 31.34580 | -102.58684 | 34905 ft | 544 kts | 97° |
| 2026-05-04 15:07 | 31.33442 | -102.49929 | 34903 ft | 544 kts | 97° |
| 2026-05-04 15:08 | 31.32315 | -102.41249 | 34907 ft | 544 kts | 97° |
| 2026-05-04 15:08 | 31.31170 | -102.32498 | 34922 ft | 544 kts | 97° |
| 2026-05-04 15:09 | 31.30020 | -102.23749 | 34919 ft | 544 kts | 97° |
| 2026-05-04 15:09 | 31.28859 | -102.14995 | 34921 ft | 544 kts | 97° |
| 2026-05-04 15:10 | 31.27115 | -102.01875 | 34947 ft | 545 kts | 97° |
| 2026-05-04 15:11 | 31.25350 | -101.88742 | 34934 ft | 545 kts | 97° |
| 2026-05-04 15:11 | 31.24169 | -101.79985 | 34917 ft | 545 kts | 97° |
| 2026-05-04 15:12 | 31.22991 | -101.71300 | 34937 ft | 544 kts | 97° |
| 2026-05-04 15:12 | 31.21793 | -101.62566 | 34961 ft | 545 kts | 97° |
| 2026-05-04 15:13 | 31.20591 | -101.53827 | 34951 ft | 545 kts | 97° |
| 2026-05-04 15:13 | 31.19382 | -101.45085 | 34950 ft | 545 kts | 97° |
| 2026-05-04 15:14 | 31.18171 | -101.36348 | 34949 ft | 545 kts | 97° |
| 2026-05-04 15:14 | 31.17090 | -101.27599 | 34969 ft | 544 kts | 93° |
| 2026-05-04 15:15 | 31.16453 | -101.18797 | 34947 ft | 544 kts | 90° |
| 2026-05-04 15:15 | 31.15949 | -101.09987 | 34943 ft | 544 kts | 91° |
| 2026-05-04 15:16 | 31.14959 | -100.96766 | 34953 ft | 546 kts | 92° |
| 2026-05-04 15:17 | 31.13853 | -100.83540 | 34961 ft | 546 kts | 92° |
| 2026-05-04 15:17 | 31.12804 | -100.70370 | 34977 ft | 546 kts | 92° |
| 2026-05-04 15:18 | 31.12103 | -100.61552 | 34980 ft | 546 kts | 92° |
| 2026-05-04 15:19 | 31.11021 | -100.48317 | 34987 ft | 546 kts | 92° |
| 2026-05-04 15:19 | 31.09917 | -100.35074 | 34956 ft | 546 kts | 92° |
| 2026-05-04 15:20 | 31.09179 | -100.26253 | 34955 ft | 546 kts | 92° |
| 2026-05-04 15:20 | 31.08441 | -100.17442 | 34975 ft | 545 kts | 92° |
| 2026-05-04 15:21 | 31.07703 | -100.08703 | 34952 ft | 545 kts | 92° |
| 2026-05-04 15:22 | 31.06559 | -99.95506 | 34959 ft | 545 kts | 92° |
| 2026-05-04 15:22 | 31.05415 | -99.82307 | 34970 ft | 545 kts | 92° |
| 2026-05-04 15:23 | 31.04642 | -99.73516 | 34962 ft | 545 kts | 92° |
| 2026-05-04 15:23 | 31.03859 | -99.64727 | 34959 ft | 545 kts | 92° |
| 2026-05-04 15:24 | 31.02291 | -99.47199 | 34965 ft | 545 kts | 92° |
| 2026-05-04 15:25 | 31.01507 | -99.38412 | 34979 ft | 545 kts | 92° |
| 2026-05-04 15:26 | 31.00304 | -99.25248 | 35009 ft | 544 kts | 92° |
| 2026-05-04 15:26 | 30.99083 | -99.12087 | 35003 ft | 544 kts | 92° |
| 2026-05-04 15:27 | 30.97856 | -98.98977 | 35001 ft | 544 kts | 92° |
| 2026-05-04 15:28 | 30.96612 | -98.85854 | 34998 ft | 543 kts | 92° |
| 2026-05-04 15:29 | 30.95011 | -98.72772 | 35004 ft | 545 kts | 96° |
| 2026-05-04 15:30 | 30.90621 | -98.42430 | 35059 ft | 541 kts | 95° |
| 2026-05-04 15:31 | 30.88810 | -98.29520 | 35076 ft | 541 kts | 96° |
| 2026-05-04 15:32 | 30.85700 | -98.07968 | 35064 ft | 539 kts | 96° |
| 2026-05-04 15:34 | 30.82589 | -97.86438 | 35063 ft | 540 kts | 96° |
| 2026-05-04 15:34 | 30.80682 | -97.73529 | 35073 ft | 540 kts | 96° |
| 2026-05-04 15:35 | 30.78762 | -97.60623 | 35065 ft | 540 kts | 96° |
| 2026-05-04 15:35 | 30.78121 | -97.56311 | 34480 ft | 545 kts | 96° |
| 2026-05-04 15:36 | 30.76842 | -97.47700 | 32505 ft | 534 kts | 96° |
| 2026-05-04 15:36 | 30.76208 | -97.43488 | 31612 ft | 524 kts | 96° |
| 2026-05-04 15:36 | 30.75589 | -97.39402 | 30716 ft | 517 kts | 96° |
| 2026-05-04 15:37 | 30.74970 | -97.35321 | 29921 ft | 506 kts | 96° |
| 2026-05-04 15:37 | 30.74368 | -97.31379 | 29369 ft | 486 kts | 96° |
| 2026-05-04 15:37 | 30.73778 | -97.27523 | 28346 ft | 482 kts | 96° |
| 2026-05-04 15:37 | 30.73198 | -97.23705 | 27796 ft | 476 kts | 96° |
| 2026-05-04 15:38 | 30.72632 | -97.19966 | 27680 ft | 463 kts | 96° |
| 2026-05-04 15:38 | 30.72081 | -97.16313 | 27574 ft | 458 kts | 96° |
| 2026-05-04 15:38 | 30.71531 | -97.12657 | 27467 ft | 461 kts | 96° |
| 2026-05-04 15:38 | 30.70977 | -97.08982 | 27002 ft | 462 kts | 96° |
| 2026-05-04 15:39 | 30.70608 | -97.06553 | 26719 ft | 459 kts | 96° |
| 2026-05-04 15:39 | 30.70050 | -97.02905 | 26268 ft | 457 kts | 97° |
| 2026-05-04 15:39 | 30.68935 | -96.95680 | 25408 ft | 452 kts | 97° |
| 2026-05-04 15:40 | 30.68380 | -96.92102 | 24970 ft | 449 kts | 97° |
| 2026-05-04 15:40 | 30.67825 | -96.88534 | 24553 ft | 447 kts | 97° |
| 2026-05-04 15:40 | 30.67275 | -96.84990 | 24125 ft | 445 kts | 97° |
| 2026-05-04 15:40 | 30.66728 | -96.81466 | 23695 ft | 443 kts | 98° |
| 2026-05-04 15:41 | 30.66182 | -96.77951 | 23205 ft | 440 kts | 98° |
| 2026-05-04 15:41 | 30.65637 | -96.74474 | 22765 ft | 436 kts | 98° |
| 2026-05-04 15:41 | 30.65095 | -96.71023 | 22337 ft | 432 kts | 98° |
| 2026-05-04 15:41 | 30.64559 | -96.67604 | 21888 ft | 429 kts | 98° |
| 2026-05-04 15:42 | 30.64028 | -96.64207 | 21447 ft | 426 kts | 98° |
| 2026-05-04 15:42 | 30.63498 | -96.60840 | 20992 ft | 423 kts | 98° |
| 2026-05-04 15:42 | 30.62966 | -96.57488 | 20542 ft | 421 kts | 99° |
| 2026-05-04 15:42 | 30.62433 | -96.54145 | 20077 ft | 419 kts | 99° |
| 2026-05-04 15:43 | 30.61903 | -96.50825 | 19623 ft | 418 kts | 99° |
| 2026-05-04 15:43 | 30.61375 | -96.47516 | 19170 ft | 416 kts | 99° |
| 2026-05-04 15:43 | 30.60771 | -96.44280 | 18715 ft | 415 kts | 107° |
| 2026-05-04 15:43 | 30.59703 | -96.41172 | 18259 ft | 413 kts | 118° |
| 2026-05-04 15:44 | 30.58178 | -96.38359 | 17680 ft | 411 kts | 129° |
| 2026-05-04 15:44 | 30.56482 | -96.35703 | 17243 ft | 408 kts | 128° |
| 2026-05-04 15:44 | 30.54805 | -96.33057 | 16789 ft | 405 kts | 128° |
| 2026-05-04 15:44 | 30.53147 | -96.30430 | 16348 ft | 402 kts | 128° |
| 2026-05-04 15:45 | 30.51502 | -96.27817 | 15881 ft | 400 kts | 128° |
| 2026-05-04 15:45 | 30.49861 | -96.25212 | 15406 ft | 398 kts | 128° |
| 2026-05-04 15:45 | 30.48230 | -96.22630 | 14926 ft | 397 kts | 128° |
| 2026-05-04 15:45 | 30.46597 | -96.20049 | 14421 ft | 396 kts | 128° |
| 2026-05-04 15:46 | 30.44970 | -96.17487 | 13925 ft | 394 kts | 128° |
| 2026-05-04 15:46 | 30.43349 | -96.14940 | 13469 ft | 390 kts | 128° |
| 2026-05-04 15:46 | 30.41745 | -96.12421 | 13029 ft | 386 kts | 128° |
| 2026-05-04 15:46 | 30.40155 | -96.09926 | 12502 ft | 384 kts | 128° |
| 2026-05-04 15:47 | 30.38606 | -96.07496 | 12215 ft | 375 kts | 127° |
| 2026-05-04 15:47 | 30.37005 | -96.05181 | 12030 ft | 361 kts | 137° |
| 2026-05-04 15:47 | 30.35069 | -96.03440 | 11894 ft | 345 kts | 153° |
| 2026-05-04 15:47 | 30.32918 | -96.02365 | 11748 ft | 330 kts | 166° |
| 2026-05-04 15:48 | 30.30748 | -96.01572 | 11369 ft | 324 kts | 166° |
| 2026-05-04 15:48 | 30.28612 | -96.00787 | 10840 ft | 321 kts | 166° |
| 2026-05-04 15:48 | 30.24392 | -95.99231 | 9980 ft | 315 kts | 165° |
| 2026-05-04 15:49 | 30.22315 | -95.98464 | 9467 ft | 312 kts | 165° |
| 2026-05-04 15:49 | 30.20251 | -95.97702 | 8828 ft | 314 kts | 165° |
| 2026-05-04 15:49 | 30.18123 | -95.96920 | 8109 ft | 324 kts | 165° |
| 2026-05-04 15:49 | 30.16013 | -95.96081 | 7875 ft | 317 kts | 156° |
| 2026-05-04 15:50 | 30.14361 | -95.94489 | 7823 ft | 307 kts | 124° |
| 2026-05-04 15:50 | 30.13680 | -95.92275 | 7884 ft | 292 kts | 95° |
| 2026-05-04 15:50 | 30.13574 | -95.89932 | 7894 ft | 292 kts | 90° |
| 2026-05-04 15:50 | 30.13553 | -95.87591 | 7888 ft | 291 kts | 89° |
| 2026-05-04 15:51 | 30.13556 | -95.85256 | 7885 ft | 291 kts | 89° |
| 2026-05-04 15:51 | 30.13554 | -95.82913 | 7883 ft | 292 kts | 89° |
| 2026-05-04 15:51 | 30.13538 | -95.80565 | 7879 ft | 292 kts | 90° |
| 2026-05-04 15:51 | 30.13511 | -95.78223 | 7938 ft | 291 kts | 90° |
| 2026-05-04 15:52 | 30.13476 | -95.75887 | 7933 ft | 292 kts | 90° |
| 2026-05-04 15:52 | 30.13437 | -95.73541 | 7933 ft | 292 kts | 90° |
| 2026-05-04 15:52 | 30.13395 | -95.71200 | 7933 ft | 291 kts | 90° |
| 2026-05-04 15:52 | 30.13353 | -95.68867 | 7930 ft | 290 kts | 90° |
| 2026-05-04 15:53 | 30.13312 | -95.66538 | 7933 ft | 290 kts | 90° |
| 2026-05-04 15:53 | 30.13268 | -95.64208 | 7931 ft | 290 kts | 90° |
| 2026-05-04 15:53 | 30.13221 | -95.61877 | 8019 ft | 289 kts | 91° |
| 2026-05-04 15:53 | 30.13175 | -95.59551 | 8021 ft | 290 kts | 91° |
| 2026-05-04 15:54 | 30.13131 | -95.57217 | 8020 ft | 291 kts | 90° |
| 2026-05-04 15:54 | 30.13088 | -95.54911 | 8019 ft | 291 kts | 90° |
| 2026-05-04 15:54 | 30.13042 | -95.52546 | 8018 ft | 290 kts | 90° |
| 2026-05-04 15:54 | 30.12998 | -95.50248 | 8017 ft | 290 kts | 90° |
| 2026-05-04 15:55 | 30.12952 | -95.47913 | 8016 ft | 291 kts | 90° |
| 2026-05-04 15:55 | 30.12904 | -95.45583 | 8017 ft | 290 kts | 91° |
| 2026-05-04 15:55 | 30.12855 | -95.43251 | 8017 ft | 290 kts | 91° |
| 2026-05-04 15:55 | 30.12805 | -95.40916 | 8015 ft | 291 kts | 90° |
| 2026-05-04 15:56 | 30.12755 | -95.38545 | 7486 ft | 301 kts | 91° |
| 2026-05-04 15:56 | 30.12705 | -95.36078 | 6721 ft | 315 kts | 92° |
| 2026-05-04 15:56 | 30.12654 | -95.33524 | 6220 ft | 316 kts | 92° |
| 2026-05-04 15:56 | 30.12605 | -95.31005 | 5865 ft | 312 kts | 94° |
| 2026-05-04 15:57 | 30.12553 | -95.28522 | 5510 ft | 305 kts | 92° |
| 2026-05-04 15:57 | 30.12503 | -95.26157 | 5248 ft | 281 kts | 94° |
| 2026-05-04 15:57 | 30.12460 | -95.24008 | 5120 ft | 256 kts | 94° |
| 2026-05-04 15:57 | 30.12419 | -95.21993 | 5025 ft | 244 kts | 95° |
| 2026-05-04 15:58 | 30.12377 | -95.20089 | 4901 ft | 231 kts | 95° |
| 2026-05-04 15:58 | 30.12336 | -95.18266 | 4788 ft | 225 kts | 95° |
| 2026-05-04 15:58 | 30.12295 | -95.16493 | 4643 ft | 223 kts | 96° |
| 2026-05-04 15:58 | 30.12161 | -95.14730 | 4464 ft | 216 kts | 111° |
| 2026-05-04 15:59 | 30.11457 | -95.13256 | 4382 ft | 208 kts | 137° |
| 2026-05-04 15:59 | 30.10289 | -95.12329 | 4334 ft | 203 kts | 162° |
| 2026-05-04 15:59 | 30.08928 | -95.12108 | 4293 ft | 198 kts | 187° |
| 2026-05-04 15:59 | 30.07559 | -95.12345 | 4258 ft | 199 kts | 189° |
| 2026-05-04 16:00 | 30.06188 | -95.12587 | 4177 ft | 199 kts | 189° |
| 2026-05-04 16:00 | 30.04820 | -95.12825 | 3992 ft | 198 kts | 189° |
| 2026-05-04 16:00 | 30.03468 | -95.13060 | 3778 ft | 196 kts | 189° |
| 2026-05-04 16:00 | 30.02137 | -95.13368 | 3545 ft | 194 kts | 202° |
| 2026-05-04 16:01 | 30.01092 | -95.14334 | 3322 ft | 199 kts | 233° |
| 2026-05-04 16:01 | 30.00699 | -95.15864 | 3069 ft | 203 kts | 263° |
| 2026-05-04 16:01 | 30.00704 | -95.17463 | 2747 ft | 198 kts | 265° |
| 2026-05-04 16:01 | 30.00714 | -95.19033 | 2465 ft | 194 kts | 266° |
| 2026-05-04 16:02 | 30.00718 | -95.20568 | 2204 ft | 186 kts | 266° |
| 2026-05-04 16:02 | 30.00721 | -95.22011 | 1964 ft | 172 kts | 264° |
| 2026-05-04 16:02 | 30.00722 | -95.24577 | 1537 ft | 150 kts | 264° |
| 2026-05-04 16:03 | 30.00721 | -95.25752 | 1341 ft | 147 kts | 264° |
| 2026-05-04 16:03 | 30.00720 | -95.26940 | 1151 ft | 148 kts | 265° |
| 2026-05-04 16:03 | 30.00719 | -95.28139 | 956 ft | 150 kts | 264° |
| 2026-05-04 16:03 | 30.00719 | -95.29335 | 777 ft | 148 kts | 265° |
| 2026-05-04 16:04 | 30.00718 | -95.30525 | 577 ft | 149 kts | 264° |
| 2026-05-04 16:04 | 30.00723 | -95.32944 | 193 ft | 151 kts | 264° |
| 2026-05-04 16:04 | 30.00728 | -95.34128 | 109 ft | 138 kts | 266° |
| 2026-05-04 16:05 | 30.00714 | -95.35030 | 107 ft | 85 kts | 269° |
| 2026-05-04 16:05 | 30.00715 | -95.35508 | 107 ft | 31 kts | 269° |
| 2026-05-04 16:05 | 30.00645 | -95.35758 | 107 ft | 11 kts | 182° |
| 2026-05-04 16:06 | 30.00572 | -95.35757 | 107 ft | 10 kts | 179° |
| 2026-05-04 16:06 | 30.00307 | -95.35736 | 107 ft | 21 kts | 143° |
| 2026-05-04 16:07 | 30.00155 | -95.35570 | 107 ft | 23 kts | 139° |
| 2026-05-04 16:07 | 29.99704 | -95.35484 | 107 ft | 23 kts | 181° |
| 2026-05-04 16:08 | 29.99549 | -95.35485 | 107 ft | 23 kts | 180° |
| 2026-05-04 16:08 | 29.99089 | -95.35485 | 107 ft | 15 kts | 180° |
| 2026-05-04 16:09 | 29.98995 | -95.35357 | 107 ft | 17 kts | 90° |
| 2026-05-04 16:09 | 29.98994 | -95.35092 | 107 ft | 16 kts | 90° |
| 2026-05-04 16:10 | 29.98989 | -95.34836 | 107 ft | 15 kts | 111° |
| 2026-05-04 16:11 | 29.98818 | -95.34859 | 107 ft | 4 kts | 266° |
| 2026-05-04 16:11 | 29.98817 | -95.34885 | 107 ft | 2 kts | 269° |
| 2026-05-04 16:12 | 29.98817 | -95.34887 | 107 ft | 0 kts | 269° |